sensor_id;sensor_type;location;lat;lon;timestamp;P1;durP1;ratioP1;P2;durP2;ratioP2
51780;SDS011;37844;57.126;24.288;2023-09-19T00:02:12;14.73;;;8.82;;
51780;SDS011;37844;57.126;24.288;2023-09-19T00:04:56;14.18;;;9.35;;
51780;SDS011;37844;57.126;24.288;2023-09-19T00:07:40;17.45;;;9.93;;
51780;SDS011;37844;57.126;24.288;2023-09-19T00:10:25;12.23;;;8.68;;
51780;SDS011;37844;57.126;24.288;2023-09-19T00:13:10;12.50;;;8.32;;
51780;SDS011;37844;57.126;24.288;2023-09-19T00:15:57;11.25;;;8.55;;
51780;SDS011;37844;57.126;24.288;2023-09-19T00:18:42;13.98;;;9.18;;
51780;SDS011;37844;57.126;24.288;2023-09-19T00:21:26;18.70;;;9.90;;
51780;SDS011;37844;57.126;24.288;2023-09-19T00:24:10;17.27;;;9.48;;
51780;SDS011;37844;57.126;24.288;2023-09-19T00:26:55;12.90;;;8.30;;
51780;SDS011;37844;57.126;24.288;2023-09-19T00:29:39;12.60;;;8.90;;
51780;SDS011;37844;57.126;24.288;2023-09-19T00:32:23;13.38;;;9.80;;
51780;SDS011;37844;57.126;24.288;2023-09-19T00:35:07;10.70;;;8.15;;
51780;SDS011;37844;57.126;24.288;2023-09-19T00:37:54;14.63;;;9.15;;
51780;SDS011;37844;57.126;24.288;2023-09-19T00:40:39;12.40;;;9.65;;
51780;SDS011;37844;57.126;24.288;2023-09-19T00:43:30;15.35;;;9.65;;
51780;SDS011;37844;57.126;24.288;2023-09-19T00:46:18;13.75;;;9.20;;
51780;SDS011;37844;57.126;24.288;2023-09-19T00:49:02;14.20;;;9.80;;
51780;SDS011;37844;57.126;24.288;2023-09-19T00:51:46;13.40;;;9.73;;
51780;SDS011;37844;57.126;24.288;2023-09-19T00:54:31;15.00;;;10.65;;
51780;SDS011;37844;57.126;24.288;2023-09-19T00:57:17;23.35;;;10.65;;
51780;SDS011;37844;57.126;24.288;2023-09-19T01:00:04;16.33;;;9.88;;
51780;SDS011;37844;57.126;24.288;2023-09-19T01:02:52;16.85;;;10.93;;
51780;SDS011;37844;57.126;24.288;2023-09-19T01:05:36;20.58;;;9.38;;
51780;SDS011;37844;57.126;24.288;2023-09-19T01:08:20;23.05;;;11.32;;
51780;SDS011;37844;57.126;24.288;2023-09-19T01:17:34;14.68;;;11.00;;
51780;SDS011;37844;57.126;24.288;2023-09-19T01:26:30;19.90;;;11.70;;
51780;SDS011;37844;57.126;24.288;2023-09-19T01:32:27;20.98;;;11.90;;
51780;SDS011;37844;57.126;24.288;2023-09-19T01:35:13;14.63;;;10.32;;
51780;SDS011;37844;57.126;24.288;2023-09-19T01:37:57;15.55;;;10.05;;
51780;SDS011;37844;57.126;24.288;2023-09-19T01:40:43;23.17;;;11.10;;
51780;SDS011;37844;57.126;24.288;2023-09-19T01:43:41;16.95;;;11.27;;
51780;SDS011;37844;57.126;24.288;2023-09-19T01:46:30;18.90;;;10.30;;
51780;SDS011;37844;57.126;24.288;2023-09-19T01:49:23;18.77;;;11.20;;
51780;SDS011;37844;57.126;24.288;2023-09-19T01:52:28;16.90;;;10.35;;
51780;SDS011;37844;57.126;24.288;2023-09-19T01:58:06;17.63;;;10.40;;
51780;SDS011;37844;57.126;24.288;2023-09-19T02:00:52;23.30;;;11.63;;
51780;SDS011;37844;57.126;24.288;2023-09-19T02:03:38;15.95;;;12.05;;
51780;SDS011;37844;57.126;24.288;2023-09-19T02:06:24;16.27;;;11.32;;
51780;SDS011;37844;57.126;24.288;2023-09-19T02:09:08;17.90;;;11.20;;
51780;SDS011;37844;57.126;24.288;2023-09-19T02:11:52;14.73;;;10.57;;
51780;SDS011;37844;57.126;24.288;2023-09-19T02:14:39;16.35;;;11.68;;
51780;SDS011;37844;57.126;24.288;2023-09-19T02:17:23;18.48;;;9.98;;
51780;SDS011;37844;57.126;24.288;2023-09-19T02:20:10;15.88;;;11.55;;
51780;SDS011;37844;57.126;24.288;2023-09-19T02:22:58;17.00;;;12.07;;
51780;SDS011;37844;57.126;24.288;2023-09-19T02:25:42;20.08;;;12.85;;
51780;SDS011;37844;57.126;24.288;2023-09-19T02:28:27;17.55;;;12.13;;
51780;SDS011;37844;57.126;24.288;2023-09-19T02:31:15;17.27;;;12.68;;
51780;SDS011;37844;57.126;24.288;2023-09-19T02:34:00;18.33;;;12.05;;
51780;SDS011;37844;57.126;24.288;2023-09-19T02:36:44;15.80;;;11.55;;
51780;SDS011;37844;57.126;24.288;2023-09-19T02:39:28;28.60;;;11.95;;
51780;SDS011;37844;57.126;24.288;2023-09-19T02:42:19;15.77;;;11.98;;
51780;SDS011;37844;57.126;24.288;2023-09-19T02:45:03;26.13;;;13.05;;
51780;SDS011;37844;57.126;24.288;2023-09-19T02:47:49;16.02;;;11.40;;
51780;SDS011;37844;57.126;24.288;2023-09-19T02:50:33;22.15;;;13.10;;
51780;SDS011;37844;57.126;24.288;2023-09-19T02:53:18;15.52;;;11.38;;
51780;SDS011;37844;57.126;24.288;2023-09-19T02:56:02;25.50;;;12.20;;
51780;SDS011;37844;57.126;24.288;2023-09-19T02:58:47;24.08;;;13.45;;
51780;SDS011;37844;57.126;24.288;2023-09-19T03:01:32;14.70;;;11.52;;
51780;SDS011;37844;57.126;24.288;2023-09-19T03:04:17;17.90;;;14.10;;
51780;SDS011;37844;57.126;24.288;2023-09-19T03:07:03;18.38;;;12.68;;
51780;SDS011;37844;57.126;24.288;2023-09-19T03:09:47;18.02;;;12.02;;
51780;SDS011;37844;57.126;24.288;2023-09-19T03:12:32;21.48;;;12.48;;
51780;SDS011;37844;57.126;24.288;2023-09-19T03:15:17;20.52;;;11.98;;
51780;SDS011;37844;57.126;24.288;2023-09-19T03:18:02;19.98;;;13.68;;
51780;SDS011;37844;57.126;24.288;2023-09-19T03:20:53;23.55;;;13.60;;
51780;SDS011;37844;57.126;24.288;2023-09-19T03:23:41;15.15;;;11.85;;
51780;SDS011;37844;57.126;24.288;2023-09-19T03:26:25;22.30;;;12.73;;
51780;SDS011;37844;57.126;24.288;2023-09-19T03:29:10;18.20;;;13.80;;
51780;SDS011;37844;57.126;24.288;2023-09-19T03:31:55;22.23;;;13.45;;
51780;SDS011;37844;57.126;24.288;2023-09-19T03:34:39;22.50;;;14.25;;
51780;SDS011;37844;57.126;24.288;2023-09-19T03:37:27;16.10;;;11.95;;
51780;SDS011;37844;57.126;24.288;2023-09-19T03:40:11;24.38;;;19.10;;
51780;SDS011;37844;57.126;24.288;2023-09-19T03:42:56;18.13;;;14.25;;
51780;SDS011;37844;57.126;24.288;2023-09-19T03:45:44;17.42;;;13.20;;
51780;SDS011;37844;57.126;24.288;2023-09-19T03:48:28;19.75;;;13.10;;
51780;SDS011;37844;57.126;24.288;2023-09-19T03:51:13;19.30;;;14.00;;
51780;SDS011;37844;57.126;24.288;2023-09-19T03:53:56;23.20;;;14.27;;
51780;SDS011;37844;57.126;24.288;2023-09-19T03:56:40;19.27;;;14.50;;
51780;SDS011;37844;57.126;24.288;2023-09-19T03:59:26;17.23;;;13.40;;
51780;SDS011;37844;57.126;24.288;2023-09-19T04:02:12;19.95;;;15.02;;
51780;SDS011;37844;57.126;24.288;2023-09-19T04:05:05;16.83;;;14.05;;
51780;SDS011;37844;57.126;24.288;2023-09-19T04:07:50;19.15;;;13.23;;
51780;SDS011;37844;57.126;24.288;2023-09-19T04:10:34;18.17;;;14.60;;
51780;SDS011;37844;57.126;24.288;2023-09-19T04:13:18;25.85;;;13.75;;
51780;SDS011;37844;57.126;24.288;2023-09-19T04:16:02;18.45;;;14.75;;
51780;SDS011;37844;57.126;24.288;2023-09-19T04:18:47;24.55;;;14.13;;
51780;SDS011;37844;57.126;24.288;2023-09-19T04:21:31;21.88;;;14.52;;
51780;SDS011;37844;57.126;24.288;2023-09-19T04:24:15;23.23;;;13.85;;
51780;SDS011;37844;57.126;24.288;2023-09-19T04:26:59;18.85;;;13.40;;
51780;SDS011;37844;57.126;24.288;2023-09-19T04:29:43;17.95;;;13.40;;
51780;SDS011;37844;57.126;24.288;2023-09-19T04:32:28;21.13;;;14.88;;
51780;SDS011;37844;57.126;24.288;2023-09-19T04:35:13;17.00;;;13.95;;
51780;SDS011;37844;57.126;24.288;2023-09-19T04:37:57;18.58;;;14.63;;
51780;SDS011;37844;57.126;24.288;2023-09-19T04:40:41;19.98;;;14.93;;
51780;SDS011;37844;57.126;24.288;2023-09-19T04:43:25;19.95;;;14.52;;
51780;SDS011;37844;57.126;24.288;2023-09-19T04:46:10;20.17;;;15.07;;
51780;SDS011;37844;57.126;24.288;2023-09-19T04:48:57;24.48;;;13.48;;
51780;SDS011;37844;57.126;24.288;2023-09-19T04:51:42;20.13;;;14.70;;
51780;SDS011;37844;57.126;24.288;2023-09-19T04:54:26;18.92;;;13.60;;
51780;SDS011;37844;57.126;24.288;2023-09-19T04:57:11;21.20;;;13.38;;
51780;SDS011;37844;57.126;24.288;2023-09-19T04:59:56;19.55;;;13.40;;
51780;SDS011;37844;57.126;24.288;2023-09-19T05:02:41;19.33;;;14.77;;
51780;SDS011;37844;57.126;24.288;2023-09-19T05:05:26;19.13;;;13.25;;
51780;SDS011;37844;57.126;24.288;2023-09-19T05:08:10;17.55;;;13.90;;
51780;SDS011;37844;57.126;24.288;2023-09-19T05:10:53;25.17;;;13.20;;
51780;SDS011;37844;57.126;24.288;2023-09-19T05:13:39;17.83;;;13.80;;
51780;SDS011;37844;57.126;24.288;2023-09-19T05:16:23;18.15;;;12.95;;
51780;SDS011;37844;57.126;24.288;2023-09-19T05:19:08;18.98;;;12.85;;
51780;SDS011;37844;57.126;24.288;2023-09-19T05:21:55;17.10;;;13.45;;
51780;SDS011;37844;57.126;24.288;2023-09-19T05:24:39;17.83;;;12.25;;
51780;SDS011;37844;57.126;24.288;2023-09-19T05:27:23;18.35;;;12.95;;
51780;SDS011;37844;57.126;24.288;2023-09-19T05:30:07;27.13;;;13.43;;
51780;SDS011;37844;57.126;24.288;2023-09-19T05:32:52;17.52;;;13.75;;
51780;SDS011;37844;57.126;24.288;2023-09-19T05:35:36;27.60;;;19.33;;
51780;SDS011;37844;57.126;24.288;2023-09-19T05:38:25;26.00;;;14.40;;
51780;SDS011;37844;57.126;24.288;2023-09-19T05:41:10;15.57;;;11.95;;
51780;SDS011;37844;57.126;24.288;2023-09-19T05:43:57;17.13;;;12.38;;
51780;SDS011;37844;57.126;24.288;2023-09-19T05:46:43;21.80;;;12.90;;
51780;SDS011;37844;57.126;24.288;2023-09-19T05:49:29;23.88;;;14.88;;
51780;SDS011;37844;57.126;24.288;2023-09-19T05:52:13;16.80;;;12.70;;
51780;SDS011;37844;57.126;24.288;2023-09-19T05:54:57;22.20;;;13.23;;
51780;SDS011;37844;57.126;24.288;2023-09-19T05:57:40;21.30;;;14.27;;
51780;SDS011;37844;57.126;24.288;2023-09-19T06:00:27;21.55;;;13.10;;
51780;SDS011;37844;57.126;24.288;2023-09-19T06:03:15;19.85;;;13.48;;
51780;SDS011;37844;57.126;24.288;2023-09-19T06:06:01;16.85;;;13.75;;
51780;SDS011;37844;57.126;24.288;2023-09-19T06:08:46;18.02;;;13.27;;
51780;SDS011;37844;57.126;24.288;2023-09-19T06:11:30;16.25;;;12.43;;
51780;SDS011;37844;57.126;24.288;2023-09-19T06:14:16;16.83;;;12.23;;
51780;SDS011;37844;57.126;24.288;2023-09-19T06:17:01;26.48;;;12.93;;
51780;SDS011;37844;57.126;24.288;2023-09-19T06:19:45;17.88;;;11.23;;
51780;SDS011;37844;57.126;24.288;2023-09-19T06:22:31;20.45;;;12.30;;
51780;SDS011;37844;57.126;24.288;2023-09-19T06:25:15;17.83;;;12.20;;
51780;SDS011;37844;57.126;24.288;2023-09-19T06:28:03;15.15;;;10.90;;
51780;SDS011;37844;57.126;24.288;2023-09-19T06:30:49;17.58;;;10.73;;
51780;SDS011;37844;57.126;24.288;2023-09-19T06:33:33;20.05;;;12.52;;
51780;SDS011;37844;57.126;24.288;2023-09-19T06:36:17;21.17;;;10.80;;
51780;SDS011;37844;57.126;24.288;2023-09-19T06:39:03;15.27;;;10.27;;
51780;SDS011;37844;57.126;24.288;2023-09-19T06:41:48;15.57;;;9.48;;
51780;SDS011;37844;57.126;24.288;2023-09-19T06:44:33;15.13;;;8.35;;
51780;SDS011;37844;57.126;24.288;2023-09-19T06:47:17;15.52;;;9.63;;
51780;SDS011;37844;57.126;24.288;2023-09-19T06:50:01;17.45;;;9.73;;
51780;SDS011;37844;57.126;24.288;2023-09-19T06:52:46;15.57;;;8.82;;
51780;SDS011;37844;57.126;24.288;2023-09-19T06:55:35;11.70;;;7.13;;
51780;SDS011;37844;57.126;24.288;2023-09-19T06:58:20;15.45;;;8.43;;
51780;SDS011;37844;57.126;24.288;2023-09-19T07:01:04;22.67;;;7.70;;
51780;SDS011;37844;57.126;24.288;2023-09-19T07:03:48;9.25;;;6.97;;
51780;SDS011;37844;57.126;24.288;2023-09-19T07:06:32;13.95;;;8.85;;
51780;SDS011;37844;57.126;24.288;2023-09-19T07:09:17;15.68;;;8.68;;
51780;SDS011;37844;57.126;24.288;2023-09-19T07:12:03;10.57;;;7.03;;
51780;SDS011;37844;57.126;24.288;2023-09-19T07:14:47;17.73;;;7.53;;
51780;SDS011;37844;57.126;24.288;2023-09-19T07:17:31;13.77;;;7.25;;
51780;SDS011;37844;57.126;24.288;2023-09-19T07:20:16;14.68;;;7.82;;
51780;SDS011;37844;57.126;24.288;2023-09-19T07:23:01;21.52;;;7.63;;
51780;SDS011;37844;57.126;24.288;2023-09-19T07:25:45;20.40;;;8.98;;
51780;SDS011;37844;57.126;24.288;2023-09-19T07:28:30;16.15;;;7.55;;
51780;SDS011;37844;57.126;24.288;2023-09-19T07:31:14;15.45;;;8.68;;
51780;SDS011;37844;57.126;24.288;2023-09-19T07:33:59;15.50;;;7.75;;
51780;SDS011;37844;57.126;24.288;2023-09-19T07:36:43;17.23;;;7.45;;
51780;SDS011;37844;57.126;24.288;2023-09-19T07:39:27;10.73;;;6.95;;
51780;SDS011;37844;57.126;24.288;2023-09-19T07:42:11;15.88;;;7.15;;
51780;SDS011;37844;57.126;24.288;2023-09-19T07:45:01;15.05;;;7.07;;
51780;SDS011;37844;57.126;24.288;2023-09-19T07:47:49;13.82;;;6.85;;
51780;SDS011;37844;57.126;24.288;2023-09-19T07:50:35;14.27;;;7.18;;
51780;SDS011;37844;57.126;24.288;2023-09-19T07:56:08;9.10;;;6.18;;
51780;SDS011;37844;57.126;24.288;2023-09-19T07:58:53;17.52;;;7.72;;
51780;SDS011;37844;57.126;24.288;2023-09-19T08:01:37;11.95;;;6.53;;
51780;SDS011;37844;57.126;24.288;2023-09-19T08:04:23;12.85;;;6.85;;
51780;SDS011;37844;57.126;24.288;2023-09-19T08:07:09;17.48;;;7.03;;
51780;SDS011;37844;57.126;24.288;2023-09-19T08:09:54;13.75;;;6.50;;
51780;SDS011;37844;57.126;24.288;2023-09-19T08:12:42;14.32;;;7.80;;
51780;SDS011;37844;57.126;24.288;2023-09-19T08:15:30;15.73;;;7.78;;
51780;SDS011;37844;57.126;24.288;2023-09-19T08:18:15;9.68;;;6.63;;
51780;SDS011;37844;57.126;24.288;2023-09-19T08:20:59;12.23;;;7.40;;
51780;SDS011;37844;57.126;24.288;2023-09-19T08:23:45;9.45;;;6.05;;
51780;SDS011;37844;57.126;24.288;2023-09-19T08:26:29;9.60;;;6.50;;
51780;SDS011;37844;57.126;24.288;2023-09-19T08:29:14;11.98;;;6.13;;
51780;SDS011;37844;57.126;24.288;2023-09-19T08:31:58;13.45;;;6.65;;
51780;SDS011;37844;57.126;24.288;2023-09-19T08:34:42;14.43;;;7.35;;
51780;SDS011;37844;57.126;24.288;2023-09-19T08:37:26;12.93;;;7.22;;
51780;SDS011;37844;57.126;24.288;2023-09-19T08:40:10;10.43;;;6.50;;
51780;SDS011;37844;57.126;24.288;2023-09-19T08:42:56;10.77;;;7.10;;
51780;SDS011;37844;57.126;24.288;2023-09-19T08:45:40;10.85;;;6.13;;
51780;SDS011;37844;57.126;24.288;2023-09-19T08:51:17;9.45;;;6.80;;
51780;SDS011;37844;57.126;24.288;2023-09-19T08:54:23;9.38;;;6.40;;
51780;SDS011;37844;57.126;24.288;2023-09-19T08:57:10;22.27;;;10.00;;
51780;SDS011;37844;57.126;24.288;2023-09-19T08:59:55;12.30;;;7.20;;
51780;SDS011;37844;57.126;24.288;2023-09-19T09:02:40;11.75;;;7.90;;
51780;SDS011;37844;57.126;24.288;2023-09-19T09:05:26;12.65;;;7.68;;
51780;SDS011;37844;57.126;24.288;2023-09-19T09:08:12;13.00;;;6.78;;
51780;SDS011;37844;57.126;24.288;2023-09-19T09:10:57;18.00;;;7.28;;
51780;SDS011;37844;57.126;24.288;2023-09-19T09:13:45;12.50;;;7.57;;
51780;SDS011;37844;57.126;24.288;2023-09-19T09:16:30;16.30;;;7.90;;
51780;SDS011;37844;57.126;24.288;2023-09-19T09:19:14;18.02;;;8.10;;
51780;SDS011;37844;57.126;24.288;2023-09-19T09:22:08;24.35;;;8.18;;
51780;SDS011;37844;57.126;24.288;2023-09-19T09:24:53;29.55;;;18.88;;
51780;SDS011;37844;57.126;24.288;2023-09-19T09:27:42;20.00;;;8.77;;
51780;SDS011;37844;57.126;24.288;2023-09-19T09:30:33;25.48;;;12.38;;
51780;SDS011;37844;57.126;24.288;2023-09-19T09:33:21;13.27;;;8.27;;
51780;SDS011;37844;57.126;24.288;2023-09-19T09:36:06;16.02;;;7.57;;
51780;SDS011;37844;57.126;24.288;2023-09-19T09:38:52;12.18;;;7.22;;
51780;SDS011;37844;57.126;24.288;2023-09-19T09:41:39;21.65;;;13.70;;
51780;SDS011;37844;57.126;24.288;2023-09-19T09:44:23;16.58;;;8.02;;
51780;SDS011;37844;57.126;24.288;2023-09-19T09:47:07;25.60;;;9.32;;
51780;SDS011;37844;57.126;24.288;2023-09-19T09:50:10;12.77;;;7.05;;
51780;SDS011;37844;57.126;24.288;2023-09-19T09:53:01;14.27;;;7.93;;
51780;SDS011;37844;57.126;24.288;2023-09-19T09:56:04;11.40;;;7.93;;
51780;SDS011;37844;57.126;24.288;2023-09-19T09:58:53;14.48;;;8.35;;
51780;SDS011;37844;57.126;24.288;2023-09-19T10:01:48;16.73;;;8.75;;
51780;SDS011;37844;57.126;24.288;2023-09-19T10:04:33;15.13;;;8.48;;
51780;SDS011;37844;57.126;24.288;2023-09-19T10:07:30;18.48;;;7.97;;
51780;SDS011;37844;57.126;24.288;2023-09-19T10:10:34;19.65;;;7.30;;
51780;SDS011;37844;57.126;24.288;2023-09-19T10:13:25;16.33;;;7.85;;
51780;SDS011;37844;57.126;24.288;2023-09-19T10:16:14;14.13;;;7.82;;
51780;SDS011;37844;57.126;24.288;2023-09-19T10:19:03;17.50;;;7.50;;
51780;SDS011;37844;57.126;24.288;2023-09-19T10:24:37;16.52;;;8.32;;
51780;SDS011;37844;57.126;24.288;2023-09-19T10:27:24;12.32;;;7.15;;
51780;SDS011;37844;57.126;24.288;2023-09-19T10:30:10;12.82;;;7.60;;
51780;SDS011;37844;57.126;24.288;2023-09-19T10:33:02;27.35;;;8.27;;
51780;SDS011;37844;57.126;24.288;2023-09-19T10:35:49;13.55;;;6.97;;
51780;SDS011;37844;57.126;24.288;2023-09-19T10:38:36;11.02;;;6.53;;
51780;SDS011;37844;57.126;24.288;2023-09-19T10:41:24;16.13;;;8.27;;
51780;SDS011;37844;57.126;24.288;2023-09-19T10:44:15;15.70;;;7.80;;
51780;SDS011;37844;57.126;24.288;2023-09-19T10:47:04;14.05;;;7.15;;
51780;SDS011;37844;57.126;24.288;2023-09-19T10:49:51;12.63;;;8.55;;
51780;SDS011;37844;57.126;24.288;2023-09-19T10:52:34;16.10;;;8.27;;
51780;SDS011;37844;57.126;24.288;2023-09-19T10:55:26;14.32;;;8.68;;
51780;SDS011;37844;57.126;24.288;2023-09-19T10:58:12;13.65;;;7.03;;
51780;SDS011;37844;57.126;24.288;2023-09-19T11:01:08;17.98;;;8.00;;
51780;SDS011;37844;57.126;24.288;2023-09-19T11:04:20;21.55;;;9.45;;
51780;SDS011;37844;57.126;24.288;2023-09-19T11:07:10;14.32;;;8.35;;
51780;SDS011;37844;57.126;24.288;2023-09-19T11:09:56;19.15;;;7.75;;
51780;SDS011;37844;57.126;24.288;2023-09-19T11:12:48;16.80;;;6.38;;
51780;SDS011;37844;57.126;24.288;2023-09-19T11:27:09;20.88;;;10.52;;
51780;SDS011;37844;57.126;24.288;2023-09-19T11:33:20;12.35;;;7.50;;
51780;SDS011;37844;57.126;24.288;2023-09-19T11:36:16;21.08;;;7.55;;
51780;SDS011;37844;57.126;24.288;2023-09-19T11:39:03;13.35;;;7.57;;
51780;SDS011;37844;57.126;24.288;2023-09-19T11:41:52;14.52;;;7.78;;
51780;SDS011;37844;57.126;24.288;2023-09-19T11:44:40;35.53;;;8.18;;
51780;SDS011;37844;57.126;24.288;2023-09-19T11:47:24;13.68;;;8.50;;
51780;SDS011;37844;57.126;24.288;2023-09-19T11:50:09;30.35;;;7.22;;
51780;SDS011;37844;57.126;24.288;2023-09-19T11:52:55;14.93;;;9.63;;
51780;SDS011;37844;57.126;24.288;2023-09-19T11:55:39;19.70;;;8.98;;
51780;SDS011;37844;57.126;24.288;2023-09-19T11:58:27;11.68;;;7.63;;
51780;SDS011;37844;57.126;24.288;2023-09-19T12:01:13;17.17;;;8.48;;
51780;SDS011;37844;57.126;24.288;2023-09-19T12:04:03;17.88;;;8.57;;
51780;SDS011;37844;57.126;24.288;2023-09-19T12:06:56;11.50;;;7.25;;
51780;SDS011;37844;57.126;24.288;2023-09-19T12:12:33;20.40;;;8.50;;
51780;SDS011;37844;57.126;24.288;2023-09-19T12:15:22;9.88;;;7.63;;
51780;SDS011;37844;57.126;24.288;2023-09-19T12:18:27;24.23;;;8.55;;
51780;SDS011;37844;57.126;24.288;2023-09-19T12:24:27;15.98;;;9.23;;
51780;SDS011;37844;57.126;24.288;2023-09-19T12:27:13;13.63;;;7.97;;
51780;SDS011;37844;57.126;24.288;2023-09-19T12:29:58;24.35;;;8.57;;
51780;SDS011;37844;57.126;24.288;2023-09-19T12:32:43;13.40;;;9.68;;
51780;SDS011;37844;57.126;24.288;2023-09-19T12:35:31;18.00;;;8.88;;
51780;SDS011;37844;57.126;24.288;2023-09-19T12:38:26;18.92;;;8.68;;
51780;SDS011;37844;57.126;24.288;2023-09-19T12:41:13;15.75;;;10.80;;
51780;SDS011;37844;57.126;24.288;2023-09-19T12:43:58;34.00;;;16.20;;
51780;SDS011;37844;57.126;24.288;2023-09-19T12:46:44;14.00;;;8.73;;
51780;SDS011;37844;57.126;24.288;2023-09-19T12:49:28;19.27;;;10.25;;
51780;SDS011;37844;57.126;24.288;2023-09-19T12:52:12;15.05;;;8.85;;
51780;SDS011;37844;57.126;24.288;2023-09-19T12:54:57;21.35;;;9.63;;
51780;SDS011;37844;57.126;24.288;2023-09-19T12:57:41;22.27;;;9.35;;
51780;SDS011;37844;57.126;24.288;2023-09-19T13:00:38;19.20;;;10.52;;
51780;SDS011;37844;57.126;24.288;2023-09-19T13:03:25;19.40;;;10.55;;
51780;SDS011;37844;57.126;24.288;2023-09-19T13:06:34;21.00;;;10.50;;
51780;SDS011;37844;57.126;24.288;2023-09-19T13:09:21;30.60;;;10.18;;
51780;SDS011;37844;57.126;24.288;2023-09-19T13:15:22;20.42;;;10.50;;
51780;SDS011;37844;57.126;24.288;2023-09-19T13:18:12;31.05;;;10.48;;
51780;SDS011;37844;57.126;24.288;2023-09-19T13:21:11;31.05;;;11.48;;
51780;SDS011;37844;57.126;24.288;2023-09-19T13:24:23;14.77;;;10.68;;
51780;SDS011;37844;57.126;24.288;2023-09-19T13:27:13;25.75;;;11.57;;
51780;SDS011;37844;57.126;24.288;2023-09-19T13:29:58;13.23;;;10.48;;
51780;SDS011;37844;57.126;24.288;2023-09-19T13:32:42;16.15;;;12.07;;
51780;SDS011;37844;57.126;24.288;2023-09-19T13:35:27;19.63;;;13.15;;
51780;SDS011;37844;57.126;24.288;2023-09-19T13:38:11;16.20;;;13.10;;
51780;SDS011;37844;57.126;24.288;2023-09-19T13:40:56;17.65;;;14.18;;
51780;SDS011;37844;57.126;24.288;2023-09-19T13:43:40;21.10;;;14.75;;
51780;SDS011;37844;57.126;24.288;2023-09-19T13:46:24;22.65;;;15.65;;
51780;SDS011;37844;57.126;24.288;2023-09-19T13:49:10;25.13;;;15.80;;
51780;SDS011;37844;57.126;24.288;2023-09-19T13:51:55;27.52;;;16.67;;
51780;SDS011;37844;57.126;24.288;2023-09-19T13:54:39;20.58;;;15.85;;
51780;SDS011;37844;57.126;24.288;2023-09-19T13:57:26;23.20;;;16.92;;
51780;SDS011;37844;57.126;24.288;2023-09-19T14:00:11;23.42;;;17.63;;
51780;SDS011;37844;57.126;24.288;2023-09-19T14:02:58;25.67;;;17.77;;
51780;SDS011;37844;57.126;24.288;2023-09-19T14:05:42;20.52;;;16.65;;
51780;SDS011;37844;57.126;24.288;2023-09-19T14:08:26;21.13;;;17.08;;
51780;SDS011;37844;57.126;24.288;2023-09-19T14:11:10;23.70;;;18.35;;
51780;SDS011;37844;57.126;24.288;2023-09-19T14:13:55;28.75;;;18.77;;
51780;SDS011;37844;57.126;24.288;2023-09-19T14:16:39;36.67;;;18.63;;
51780;SDS011;37844;57.126;24.288;2023-09-19T14:19:25;22.90;;;18.90;;
51780;SDS011;37844;57.126;24.288;2023-09-19T14:22:10;29.90;;;19.30;;
51780;SDS011;37844;57.126;24.288;2023-09-19T14:24:53;23.00;;;19.27;;
51780;SDS011;37844;57.126;24.288;2023-09-19T14:27:38;24.65;;;19.98;;
51780;SDS011;37844;57.126;24.288;2023-09-19T14:30:22;25.48;;;19.50;;
51780;SDS011;37844;57.126;24.288;2023-09-19T14:33:06;22.65;;;17.58;;
51780;SDS011;37844;57.126;24.288;2023-09-19T14:35:51;23.58;;;19.95;;
51780;SDS011;37844;57.126;24.288;2023-09-19T14:38:35;24.98;;;20.55;;
51780;SDS011;37844;57.126;24.288;2023-09-19T14:41:20;31.90;;;20.65;;
51780;SDS011;37844;57.126;24.288;2023-09-19T14:44:05;27.20;;;20.65;;
51780;SDS011;37844;57.126;24.288;2023-09-19T14:46:49;24.42;;;19.80;;
51780;SDS011;37844;57.126;24.288;2023-09-19T14:49:33;26.38;;;20.67;;
51780;SDS011;37844;57.126;24.288;2023-09-19T14:52:18;25.55;;;19.48;;
51780;SDS011;37844;57.126;24.288;2023-09-19T14:55:03;23.48;;;19.90;;
51780;SDS011;37844;57.126;24.288;2023-09-19T14:57:49;23.75;;;20.08;;
51780;SDS011;37844;57.126;24.288;2023-09-19T15:00:35;22.75;;;18.25;;
51780;SDS011;37844;57.126;24.288;2023-09-19T15:03:19;23.90;;;18.20;;
51780;SDS011;37844;57.126;24.288;2023-09-19T15:06:03;26.40;;;18.30;;
51780;SDS011;37844;57.126;24.288;2023-09-19T15:08:48;22.17;;;18.27;;
51780;SDS011;37844;57.126;24.288;2023-09-19T15:11:33;22.67;;;17.92;;
51780;SDS011;37844;57.126;24.288;2023-09-19T15:14:18;24.20;;;18.95;;
51780;SDS011;37844;57.126;24.288;2023-09-19T15:17:02;22.15;;;18.13;;
51780;SDS011;37844;57.126;24.288;2023-09-19T15:19:49;19.65;;;16.38;;
51780;SDS011;37844;57.126;24.288;2023-09-19T15:22:33;22.63;;;16.63;;
51780;SDS011;37844;57.126;24.288;2023-09-19T15:25:21;24.13;;;17.95;;
51780;SDS011;37844;57.126;24.288;2023-09-19T15:28:07;20.20;;;16.35;;
51780;SDS011;37844;57.126;24.288;2023-09-19T15:31:02;24.83;;;18.17;;
51780;SDS011;37844;57.126;24.288;2023-09-19T15:33:47;20.35;;;15.98;;
51780;SDS011;37844;57.126;24.288;2023-09-19T15:36:32;20.13;;;16.33;;
51780;SDS011;37844;57.126;24.288;2023-09-19T15:39:16;22.33;;;17.40;;
51780;SDS011;37844;57.126;24.288;2023-09-19T15:42:00;21.58;;;16.42;;
51780;SDS011;37844;57.126;24.288;2023-09-19T15:44:44;19.85;;;17.23;;
51780;SDS011;37844;57.126;24.288;2023-09-19T15:47:30;26.00;;;16.70;;
51780;SDS011;37844;57.126;24.288;2023-09-19T15:50:14;27.50;;;19.33;;
51780;SDS011;37844;57.126;24.288;2023-09-19T15:52:58;19.88;;;16.30;;
51780;SDS011;37844;57.126;24.288;2023-09-19T15:55:42;21.55;;;15.85;;
51780;SDS011;37844;57.126;24.288;2023-09-19T15:58:27;17.63;;;14.82;;
51780;SDS011;37844;57.126;24.288;2023-09-19T16:01:12;19.35;;;14.68;;
51780;SDS011;37844;57.126;24.288;2023-09-19T16:03:56;18.98;;;15.77;;
51780;SDS011;37844;57.126;24.288;2023-09-19T16:06:41;23.70;;;14.90;;
51780;SDS011;37844;57.126;24.288;2023-09-19T16:09:24;20.60;;;16.27;;
51780;SDS011;37844;57.126;24.288;2023-09-19T16:12:08;23.20;;;15.35;;
51780;SDS011;37844;57.126;24.288;2023-09-19T16:14:55;25.77;;;16.30;;
51780;SDS011;37844;57.126;24.288;2023-09-19T16:17:40;24.17;;;15.07;;
51780;SDS011;37844;57.126;24.288;2023-09-19T16:20:24;22.58;;;15.15;;
51780;SDS011;37844;57.126;24.288;2023-09-19T16:23:08;17.52;;;13.05;;
51780;SDS011;37844;57.126;24.288;2023-09-19T16:26:05;18.05;;;12.65;;
51780;SDS011;37844;57.126;24.288;2023-09-19T16:28:51;27.27;;;17.58;;
51780;SDS011;37844;57.126;24.288;2023-09-19T16:31:45;18.75;;;14.13;;
51780;SDS011;37844;57.126;24.288;2023-09-19T16:34:29;20.83;;;14.50;;
51780;SDS011;37844;57.126;24.288;2023-09-19T16:37:13;16.52;;;12.00;;
51780;SDS011;37844;57.126;24.288;2023-09-19T16:40:00;16.40;;;12.68;;
51780;SDS011;37844;57.126;24.288;2023-09-19T16:42:44;17.80;;;12.48;;
51780;SDS011;37844;57.126;24.288;2023-09-19T16:45:28;19.25;;;12.48;;
51780;SDS011;37844;57.126;24.288;2023-09-19T16:48:12;17.42;;;11.95;;
51780;SDS011;37844;57.126;24.288;2023-09-19T16:51:01;15.63;;;11.43;;
51780;SDS011;37844;57.126;24.288;2023-09-19T16:53:47;17.92;;;12.52;;
51780;SDS011;37844;57.126;24.288;2023-09-19T16:56:36;15.23;;;12.00;;